sensor_id;sensor_type;location;lat;lon;timestamp;P1;durP1;ratioP1;P2;durP2;ratioP2
13720;SDS011;6932;51.438;5.470;2022-10-16T00:01:08;3.20;;;2.10;;
13720;SDS011;6932;51.438;5.470;2022-10-16T00:03:37;5.73;;;2.20;;
13720;SDS011;6932;51.438;5.470;2022-10-16T00:06:04;3.23;;;2.13;;
13720;SDS011;6932;51.438;5.470;2022-10-16T00:08:30;3.50;;;2.20;;
13720;SDS011;6932;51.438;5.470;2022-10-16T00:11:00;4.57;;;2.23;;
13720;SDS011;6932;51.438;5.470;2022-10-16T00:13:32;5.63;;;2.27;;
13720;SDS011;6932;51.438;5.470;2022-10-16T00:16:00;4.00;;;2.10;;
13720;SDS011;6932;51.438;5.470;2022-10-16T00:18:27;3.40;;;1.90;;
13720;SDS011;6932;51.438;5.470;2022-10-16T00:20:54;4.30;;;2.10;;
13720;SDS011;6932;51.438;5.470;2022-10-16T00:23:26;3.90;;;1.80;;
13720;SDS011;6932;51.438;5.470;2022-10-16T00:25:55;3.47;;;1.97;;
13720;SDS011;6932;51.438;5.470;2022-10-16T00:28:27;2.77;;;2.00;;
13720;SDS011;6932;51.438;5.470;2022-10-16T00:30:53;2.70;;;1.90;;
13720;SDS011;6932;51.438;5.470;2022-10-16T00:33:19;3.30;;;1.87;;
13720;SDS011;6932;51.438;5.470;2022-10-16T00:35:45;2.53;;;1.80;;
13720;SDS011;6932;51.438;5.470;2022-10-16T00:38:12;3.27;;;1.90;;
13720;SDS011;6932;51.438;5.470;2022-10-16T00:40:38;3.57;;;1.90;;
13720;SDS011;6932;51.438;5.470;2022-10-16T00:43:31;3.67;;;1.80;;
13720;SDS011;6932;51.438;5.470;2022-10-16T00:46:29;2.87;;;1.70;;
13720;SDS011;6932;51.438;5.470;2022-10-16T00:49:09;3.17;;;1.70;;
13720;SDS011;6932;51.438;5.470;2022-10-16T00:54:26;2.83;;;1.70;;
13720;SDS011;6932;51.438;5.470;2022-10-16T00:56:56;4.67;;;1.77;;
13720;SDS011;6932;51.438;5.470;2022-10-16T00:59:27;2.97;;;1.80;;
13720;SDS011;6932;51.438;5.470;2022-10-16T01:02:04;3.33;;;1.60;;
13720;SDS011;6932;51.438;5.470;2022-10-16T01:04:37;2.23;;;1.70;;
13720;SDS011;6932;51.438;5.470;2022-10-16T01:07:10;3.30;;;1.60;;
13720;SDS011;6932;51.438;5.470;2022-10-16T01:20:44;4.27;;;1.60;;
13720;SDS011;6932;51.438;5.470;2022-10-16T01:35:21;1.97;;;1.40;;
13720;SDS011;6932;51.438;5.470;2022-10-16T01:37:54;3.13;;;1.57;;
13720;SDS011;6932;51.438;5.470;2022-10-16T01:40:28;1.80;;;1.40;;
13720;SDS011;6932;51.438;5.470;2022-10-16T01:42:59;2.30;;;1.40;;
13720;SDS011;6932;51.438;5.470;2022-10-16T01:45:39;1.60;;;1.33;;
13720;SDS011;6932;51.438;5.470;2022-10-16T01:48:09;1.83;;;1.40;;
13720;SDS011;6932;51.438;5.470;2022-10-16T01:50:41;2.17;;;1.40;;
13720;SDS011;6932;51.438;5.470;2022-10-16T01:53:27;2.50;;;1.40;;
13720;SDS011;6932;51.438;5.470;2022-10-16T01:55:55;2.03;;;1.30;;
13720;SDS011;6932;51.438;5.470;2022-10-16T01:58:23;2.03;;;1.30;;
13720;SDS011;6932;51.438;5.470;2022-10-16T02:00:52;2.00;;;1.30;;
13720;SDS011;6932;51.438;5.470;2022-10-16T02:03:20;1.97;;;1.40;;
13720;SDS011;6932;51.438;5.470;2022-10-16T02:05:56;2.00;;;1.40;;
13720;SDS011;6932;51.438;5.470;2022-10-16T02:08:24;2.87;;;1.40;;
13720;SDS011;6932;51.438;5.470;2022-10-16T02:10:54;2.70;;;1.30;;
13720;SDS011;6932;51.438;5.470;2022-10-16T02:13:23;2.37;;;1.33;;
13720;SDS011;6932;51.438;5.470;2022-10-16T02:15:55;3.60;;;1.50;;
13720;SDS011;6932;51.438;5.470;2022-10-16T02:18:21;1.23;;;1.13;;
13720;SDS011;6932;51.438;5.470;2022-10-16T02:20:49;1.67;;;1.43;;
13720;SDS011;6932;51.438;5.470;2022-10-16T02:23:45;1.30;;;1.10;;
13720;SDS011;6932;51.438;5.470;2022-10-16T02:26:19;2.57;;;1.30;;
13720;SDS011;6932;51.438;5.470;2022-10-16T02:28:58;2.77;;;1.30;;
13720;SDS011;6932;51.438;5.470;2022-10-16T02:31:31;4.47;;;1.30;;
13720;SDS011;6932;51.438;5.470;2022-10-16T02:34:03;3.57;;;1.63;;
13720;SDS011;6932;51.438;5.470;2022-10-16T02:36:32;1.63;;;1.20;;
13720;SDS011;6932;51.438;5.470;2022-10-16T02:39:00;2.67;;;1.33;;
13720;SDS011;6932;51.438;5.470;2022-10-16T02:41:28;3.23;;;1.30;;
13720;SDS011;6932;51.438;5.470;2022-10-16T02:43:55;2.77;;;1.70;;
13720;SDS011;6932;51.438;5.470;2022-10-16T02:46:21;2.27;;;1.33;;
13720;SDS011;6932;51.438;5.470;2022-10-16T02:48:47;1.87;;;1.27;;
13720;SDS011;6932;51.438;5.470;2022-10-16T02:51:13;1.70;;;1.30;;
13720;SDS011;6932;51.438;5.470;2022-10-16T02:53:39;2.77;;;1.23;;
13720;SDS011;6932;51.438;5.470;2022-10-16T02:56:04;2.33;;;1.30;;
13720;SDS011;6932;51.438;5.470;2022-10-16T02:58:30;1.90;;;1.30;;
13720;SDS011;6932;51.438;5.470;2022-10-16T03:00:56;1.97;;;1.20;;
13720;SDS011;6932;51.438;5.470;2022-10-16T03:03:21;3.07;;;1.20;;
13720;SDS011;6932;51.438;5.470;2022-10-16T03:05:47;3.40;;;1.37;;
13720;SDS011;6932;51.438;5.470;2022-10-16T03:08:13;1.57;;;1.30;;
13720;SDS011;6932;51.438;5.470;2022-10-16T03:10:39;2.70;;;1.20;;
13720;SDS011;6932;51.438;5.470;2022-10-16T03:13:05;3.63;;;1.43;;
13720;SDS011;6932;51.438;5.470;2022-10-16T03:15:30;1.83;;;1.33;;
13720;SDS011;6932;51.438;5.470;2022-10-16T03:17:59;1.90;;;1.20;;
13720;SDS011;6932;51.438;5.470;2022-10-16T03:20:25;2.03;;;1.30;;
13720;SDS011;6932;51.438;5.470;2022-10-16T03:22:51;2.83;;;1.30;;
13720;SDS011;6932;51.438;5.470;2022-10-16T03:25:17;1.57;;;1.20;;
13720;SDS011;6932;51.438;5.470;2022-10-16T03:27:43;1.60;;;1.10;;
13720;SDS011;6932;51.438;5.470;2022-10-16T03:30:09;2.33;;;1.30;;
13720;SDS011;6932;51.438;5.470;2022-10-16T03:32:35;3.40;;;1.30;;
13720;SDS011;6932;51.438;5.470;2022-10-16T03:35:01;2.70;;;1.40;;
13720;SDS011;6932;51.438;5.470;2022-10-16T03:37:27;1.60;;;1.20;;
13720;SDS011;6932;51.438;5.470;2022-10-16T03:39:52;3.50;;;1.17;;
13720;SDS011;6932;51.438;5.470;2022-10-16T03:42:18;2.00;;;1.10;;
13720;SDS011;6932;51.438;5.470;2022-10-16T03:44:44;1.63;;;1.23;;
13720;SDS011;6932;51.438;5.470;2022-10-16T03:47:10;2.47;;;1.20;;
13720;SDS011;6932;51.438;5.470;2022-10-16T03:49:36;1.83;;;1.30;;
13720;SDS011;6932;51.438;5.470;2022-10-16T03:52:01;1.77;;;1.30;;
13720;SDS011;6932;51.438;5.470;2022-10-16T03:54:27;3.97;;;1.30;;
13720;SDS011;6932;51.438;5.470;2022-10-16T03:56:53;2.20;;;1.27;;
13720;SDS011;6932;51.438;5.470;2022-10-16T03:59:19;3.47;;;1.20;;
13720;SDS011;6932;51.438;5.470;2022-10-16T04:01:44;2.00;;;1.13;;
13720;SDS011;6932;51.438;5.470;2022-10-16T04:04:10;3.00;;;1.27;;
13720;SDS011;6932;51.438;5.470;2022-10-16T04:06:36;2.73;;;1.40;;
13720;SDS011;6932;51.438;5.470;2022-10-16T04:09:01;1.47;;;1.20;;
13720;SDS011;6932;51.438;5.470;2022-10-16T04:11:27;2.27;;;1.10;;
13720;SDS011;6932;51.438;5.470;2022-10-16T04:13:53;2.00;;;1.20;;
13720;SDS011;6932;51.438;5.470;2022-10-16T04:16:18;2.53;;;1.43;;
13720;SDS011;6932;51.438;5.470;2022-10-16T04:18:44;2.70;;;1.30;;
13720;SDS011;6932;51.438;5.470;2022-10-16T04:21:10;2.40;;;1.30;;
13720;SDS011;6932;51.438;5.470;2022-10-16T04:23:36;3.37;;;1.30;;
13720;SDS011;6932;51.438;5.470;2022-10-16T04:26:02;1.87;;;1.37;;
13720;SDS011;6932;51.438;5.470;2022-10-16T04:28:28;1.83;;;1.40;;
13720;SDS011;6932;51.438;5.470;2022-10-16T04:30:53;3.33;;;1.30;;
13720;SDS011;6932;51.438;5.470;2022-10-16T04:33:19;2.63;;;1.40;;
13720;SDS011;6932;51.438;5.470;2022-10-16T04:35:45;1.60;;;1.30;;
13720;SDS011;6932;51.438;5.470;2022-10-16T04:38:10;3.27;;;1.30;;
13720;SDS011;6932;51.438;5.470;2022-10-16T04:40:36;2.20;;;1.40;;
13720;SDS011;6932;51.438;5.470;2022-10-16T04:43:02;2.43;;;1.40;;
13720;SDS011;6932;51.438;5.470;2022-10-16T04:45:29;5.23;;;1.40;;
13720;SDS011;6932;51.438;5.470;2022-10-16T04:47:58;2.10;;;1.27;;
13720;SDS011;6932;51.438;5.470;2022-10-16T04:50:25;2.10;;;1.43;;
13720;SDS011;6932;51.438;5.470;2022-10-16T04:52:51;3.53;;;1.53;;
13720;SDS011;6932;51.438;5.470;2022-10-16T04:55:16;2.03;;;1.50;;
13720;SDS011;6932;51.438;5.470;2022-10-16T04:57:42;1.97;;;1.40;;
13720;SDS011;6932;51.438;5.470;2022-10-16T05:00:08;3.43;;;1.60;;
13720;SDS011;6932;51.438;5.470;2022-10-16T05:02:34;2.90;;;1.40;;
13720;SDS011;6932;51.438;5.470;2022-10-16T05:05:00;2.33;;;1.60;;
13720;SDS011;6932;51.438;5.470;2022-10-16T05:07:26;4.10;;;1.50;;
13720;SDS011;6932;51.438;5.470;2022-10-16T05:09:52;3.83;;;1.43;;
13720;SDS011;6932;51.438;5.470;2022-10-16T05:12:18;2.57;;;1.13;;
13720;SDS011;6932;51.438;5.470;2022-10-16T05:14:43;1.50;;;1.20;;
13720;SDS011;6932;51.438;5.470;2022-10-16T05:17:09;3.43;;;1.40;;
13720;SDS011;6932;51.438;5.470;2022-10-16T05:19:35;2.33;;;1.40;;
13720;SDS011;6932;51.438;5.470;2022-10-16T05:22:00;2.07;;;1.47;;
13720;SDS011;6932;51.438;5.470;2022-10-16T05:24:26;2.10;;;1.20;;
13720;SDS011;6932;51.438;5.470;2022-10-16T05:26:52;2.03;;;1.17;;
13720;SDS011;6932;51.438;5.470;2022-10-16T05:29:18;4.00;;;1.30;;
13720;SDS011;6932;51.438;5.470;2022-10-16T05:31:44;2.80;;;1.50;;
13720;SDS011;6932;51.438;5.470;2022-10-16T05:34:10;2.90;;;1.43;;
13720;SDS011;6932;51.438;5.470;2022-10-16T05:36:36;1.90;;;1.50;;
13720;SDS011;6932;51.438;5.470;2022-10-16T05:39:02;1.63;;;1.33;;
13720;SDS011;6932;51.438;5.470;2022-10-16T05:41:28;1.60;;;1.20;;
13720;SDS011;6932;51.438;5.470;2022-10-16T05:43:54;1.87;;;1.40;;
13720;SDS011;6932;51.438;5.470;2022-10-16T05:46:19;3.10;;;1.30;;
13720;SDS011;6932;51.438;5.470;2022-10-16T05:48:46;2.00;;;1.33;;
13720;SDS011;6932;51.438;5.470;2022-10-16T05:51:12;2.80;;;1.50;;
13720;SDS011;6932;51.438;5.470;2022-10-16T05:53:40;2.50;;;1.40;;
13720;SDS011;6932;51.438;5.470;2022-10-16T05:56:06;2.03;;;1.50;;
13720;SDS011;6932;51.438;5.470;2022-10-16T05:58:35;2.33;;;1.40;;
13720;SDS011;6932;51.438;5.470;2022-10-16T06:01:06;2.70;;;1.40;;
13720;SDS011;6932;51.438;5.470;2022-10-16T06:03:36;1.93;;;1.40;;
13720;SDS011;6932;51.438;5.470;2022-10-16T06:08:42;1.83;;;1.33;;
13720;SDS011;6932;51.438;5.470;2022-10-16T06:11:11;1.77;;;1.40;;
13720;SDS011;6932;51.438;5.470;2022-10-16T06:13:42;2.70;;;1.50;;
13720;SDS011;6932;51.438;5.470;2022-10-16T06:16:10;3.80;;;1.40;;
13720;SDS011;6932;51.438;5.470;2022-10-16T06:18:37;4.33;;;1.67;;
13720;SDS011;6932;51.438;5.470;2022-10-16T06:21:11;3.63;;;1.60;;
13720;SDS011;6932;51.438;5.470;2022-10-16T06:23:40;2.07;;;1.60;;
13720;SDS011;6932;51.438;5.470;2022-10-16T06:26:08;1.80;;;1.40;;
13720;SDS011;6932;51.438;5.470;2022-10-16T06:28:36;2.97;;;1.57;;
13720;SDS011;6932;51.438;5.470;2022-10-16T06:31:03;2.43;;;1.70;;
13720;SDS011;6932;51.438;5.470;2022-10-16T06:33:30;4.37;;;1.70;;
13720;SDS011;6932;51.438;5.470;2022-10-16T06:36:03;2.63;;;1.60;;
13720;SDS011;6932;51.438;5.470;2022-10-16T06:38:35;3.90;;;1.50;;
13720;SDS011;6932;51.438;5.470;2022-10-16T06:41:03;2.43;;;1.60;;
13720;SDS011;6932;51.438;5.470;2022-10-16T06:43:30;2.03;;;1.67;;
13720;SDS011;6932;51.438;5.470;2022-10-16T06:45:57;2.27;;;1.70;;
13720;SDS011;6932;51.438;5.470;2022-10-16T06:48:25;3.07;;;1.70;;
13720;SDS011;6932;51.438;5.470;2022-10-16T06:51:08;3.17;;;1.60;;
13720;SDS011;6932;51.438;5.470;2022-10-16T06:53:41;2.53;;;1.80;;
13720;SDS011;6932;51.438;5.470;2022-10-16T06:56:17;4.60;;;1.60;;
13720;SDS011;6932;51.438;5.470;2022-10-16T06:58:49;2.33;;;1.57;;
13720;SDS011;6932;51.438;5.470;2022-10-16T07:01:16;2.33;;;1.77;;
13720;SDS011;6932;51.438;5.470;2022-10-16T07:03:45;5.07;;;2.10;;
13720;SDS011;6932;51.438;5.470;2022-10-16T07:06:13;2.93;;;1.83;;
13720;SDS011;6932;51.438;5.470;2022-10-16T07:08:44;2.87;;;1.80;;
13720;SDS011;6932;51.438;5.470;2022-10-16T07:11:12;4.57;;;1.60;;
13720;SDS011;6932;51.438;5.470;2022-10-16T07:13:41;5.00;;;1.90;;
13720;SDS011;6932;51.438;5.470;2022-10-16T07:16:11;3.97;;;1.90;;
13720;SDS011;6932;51.438;5.470;2022-10-16T07:18:40;2.93;;;1.80;;
13720;SDS011;6932;51.438;5.470;2022-10-16T07:21:09;3.20;;;1.70;;
13720;SDS011;6932;51.438;5.470;2022-10-16T07:23:39;3.53;;;1.90;;
13720;SDS011;6932;51.438;5.470;2022-10-16T07:26:05;5.60;;;1.87;;
13720;SDS011;6932;51.438;5.470;2022-10-16T07:28:32;4.47;;;1.40;;
13720;SDS011;6932;51.438;5.470;2022-10-16T07:31:02;3.80;;;1.80;;
13720;SDS011;6932;51.438;5.470;2022-10-16T07:33:36;4.53;;;1.60;;
13720;SDS011;6932;51.438;5.470;2022-10-16T07:36:03;4.83;;;1.70;;
13720;SDS011;6932;51.438;5.470;2022-10-16T07:38:30;3.77;;;1.60;;
13720;SDS011;6932;51.438;5.470;2022-10-16T07:40:59;3.60;;;1.60;;
13720;SDS011;6932;51.438;5.470;2022-10-16T07:43:29;1.73;;;1.60;;
13720;SDS011;6932;51.438;5.470;2022-10-16T07:45:56;3.43;;;1.80;;
13720;SDS011;6932;51.438;5.470;2022-10-16T07:48:22;2.37;;;1.67;;
13720;SDS011;6932;51.438;5.470;2022-10-16T07:50:48;3.17;;;1.67;;
13720;SDS011;6932;51.438;5.470;2022-10-16T07:53:14;3.97;;;2.00;;
13720;SDS011;6932;51.438;5.470;2022-10-16T07:55:40;2.87;;;1.80;;
13720;SDS011;6932;51.438;5.470;2022-10-16T07:58:06;2.03;;;1.50;;
13720;SDS011;6932;51.438;5.470;2022-10-16T08:00:32;3.27;;;1.90;;
13720;SDS011;6932;51.438;5.470;2022-10-16T08:02:59;3.63;;;1.67;;
13720;SDS011;6932;51.438;5.470;2022-10-16T08:05:28;2.80;;;1.40;;
13720;SDS011;6932;51.438;5.470;2022-10-16T08:07:57;3.67;;;1.50;;
13720;SDS011;6932;51.438;5.470;2022-10-16T08:10:24;3.60;;;1.50;;
13720;SDS011;6932;51.438;5.470;2022-10-16T08:12:53;3.57;;;1.60;;
13720;SDS011;6932;51.438;5.470;2022-10-16T08:15:19;5.03;;;1.50;;
13720;SDS011;6932;51.438;5.470;2022-10-16T08:17:55;4.47;;;1.73;;
13720;SDS011;6932;51.438;5.470;2022-10-16T08:20:26;5.50;;;1.70;;
13720;SDS011;6932;51.438;5.470;2022-10-16T08:22:53;3.40;;;1.60;;
13720;SDS011;6932;51.438;5.470;2022-10-16T08:25:20;2.60;;;1.43;;
13720;SDS011;6932;51.438;5.470;2022-10-16T08:27:47;2.27;;;1.43;;
13720;SDS011;6932;51.438;5.470;2022-10-16T08:30:14;3.90;;;1.60;;
13720;SDS011;6932;51.438;5.470;2022-10-16T08:32:42;2.87;;;1.83;;
13720;SDS011;6932;51.438;5.470;2022-10-16T08:35:09;2.80;;;1.50;;
13720;SDS011;6932;51.438;5.470;2022-10-16T08:37:36;2.53;;;1.30;;
13720;SDS011;6932;51.438;5.470;2022-10-16T08:40:04;2.30;;;1.20;;
13720;SDS011;6932;51.438;5.470;2022-10-16T08:51:22;2.53;;;1.20;;
13720;SDS011;6932;51.438;5.470;2022-10-16T08:54:05;3.90;;;1.57;;
13720;SDS011;6932;51.438;5.470;2022-10-16T08:56:54;2.13;;;1.40;;
13720;SDS011;6932;51.438;5.470;2022-10-16T08:59:36;2.80;;;1.40;;
13720;SDS011;6932;51.438;5.470;2022-10-16T09:02:02;1.90;;;1.20;;
13720;SDS011;6932;51.438;5.470;2022-10-16T09:07:53;2.87;;;1.20;;
13720;SDS011;6932;51.438;5.470;2022-10-16T09:14:44;3.77;;;1.10;;
13720;SDS011;6932;51.438;5.470;2022-10-16T09:16:41;2.60;;;1.17;;
13720;SDS011;6932;51.438;5.470;2022-10-16T09:22:13;2.73;;;1.20;;
13720;SDS011;6932;51.438;5.470;2022-10-16T09:24:41;2.23;;;1.10;;
13720;SDS011;6932;51.438;5.470;2022-10-16T09:27:10;2.70;;;1.10;;
13720;SDS011;6932;51.438;5.470;2022-10-16T09:29:38;3.93;;;1.30;;
13720;SDS011;6932;51.438;5.470;2022-10-16T09:32:11;3.57;;;1.10;;
13720;SDS011;6932;51.438;5.470;2022-10-16T09:35:01;4.90;;;1.40;;
13720;SDS011;6932;51.438;5.470;2022-10-16T09:37:27;2.60;;;1.10;;
13720;SDS011;6932;51.438;5.470;2022-10-16T09:39:53;4.73;;;1.10;;
13720;SDS011;6932;51.438;5.470;2022-10-16T09:42:21;1.73;;;1.00;;
13720;SDS011;6932;51.438;5.470;2022-10-16T09:44:59;3.60;;;1.10;;
13720;SDS011;6932;51.438;5.470;2022-10-16T09:47:25;1.90;;;1.00;;
13720;SDS011;6932;51.438;5.470;2022-10-16T09:52:21;3.43;;;1.43;;
13720;SDS011;6932;51.438;5.470;2022-10-16T09:54:58;2.13;;;1.00;;
13720;SDS011;6932;51.438;5.470;2022-10-16T09:57:34;2.00;;;1.17;;
13720;SDS011;6932;51.438;5.470;2022-10-16T10:00:00;2.93;;;1.30;;
13720;SDS011;6932;51.438;5.470;2022-10-16T10:02:34;2.27;;;1.17;;
13720;SDS011;6932;51.438;5.470;2022-10-16T10:05:05;1.93;;;1.00;;
13720;SDS011;6932;51.438;5.470;2022-10-16T10:07:57;4.10;;;1.30;;
13720;SDS011;6932;51.438;5.470;2022-10-16T10:10:28;4.47;;;1.20;;
13720;SDS011;6932;51.438;5.470;2022-10-16T10:12:57;2.67;;;1.30;;
13720;SDS011;6932;51.438;5.470;2022-10-16T10:15:24;2.27;;;1.13;;
13720;SDS011;6932;51.438;5.470;2022-10-16T10:17:58;3.83;;;1.27;;
13720;SDS011;6932;51.438;5.470;2022-10-16T10:20:31;3.30;;;1.40;;
13720;SDS011;6932;51.438;5.470;2022-10-16T10:23:20;3.00;;;1.30;;
13720;SDS011;6932;51.438;5.470;2022-10-16T10:29:00;4.23;;;1.50;;
13720;SDS011;6932;51.438;5.470;2022-10-16T10:32:01;4.20;;;1.30;;
13720;SDS011;6932;51.438;5.470;2022-10-16T10:46:12;3.00;;;1.30;;
13720;SDS011;6932;51.438;5.470;2022-10-16T10:51:28;3.37;;;1.17;;
13720;SDS011;6932;51.438;5.470;2022-10-16T10:57:21;3.10;;;1.40;;
13720;SDS011;6932;51.438;5.470;2022-10-16T11:00:00;5.10;;;1.53;;
13720;SDS011;6932;51.438;5.470;2022-10-16T11:02:37;3.27;;;1.27;;
13720;SDS011;6932;51.438;5.470;2022-10-16T11:10:58;5.17;;;1.60;;
13720;SDS011;6932;51.438;5.470;2022-10-16T11:16:21;3.33;;;1.30;;
13720;SDS011;6932;51.438;5.470;2022-10-16T11:19:14;3.03;;;1.50;;
13720;SDS011;6932;51.438;5.470;2022-10-16T11:22:24;2.80;;;1.40;;
13720;SDS011;6932;51.438;5.470;2022-10-16T11:30:43;4.63;;;1.40;;
13720;SDS011;6932;51.438;5.470;2022-10-16T11:33:22;4.10;;;1.30;;
13720;SDS011;6932;51.438;5.470;2022-10-16T11:41:54;4.70;;;1.30;;
13720;SDS011;6932;51.438;5.470;2022-10-16T11:47:51;6.60;;;1.40;;
13720;SDS011;6932;51.438;5.470;2022-10-16T11:50:51;3.17;;;1.40;;
13720;SDS011;6932;51.438;5.470;2022-10-16T11:56:17;5.33;;;1.27;;
13720;SDS011;6932;51.438;5.470;2022-10-16T12:07:32;2.90;;;1.20;;
13720;SDS011;6932;51.438;5.470;2022-10-16T12:10:27;3.87;;;1.50;;
13720;SDS011;6932;51.438;5.470;2022-10-16T12:12:56;5.13;;;1.63;;
13720;SDS011;6932;51.438;5.470;2022-10-16T12:17:53;3.53;;;1.90;;
13720;SDS011;6932;51.438;5.470;2022-10-16T12:22:56;6.47;;;1.30;;
13720;SDS011;6932;51.438;5.470;2022-10-16T12:25:31;4.23;;;1.33;;
13720;SDS011;6932;51.438;5.470;2022-10-16T12:28:03;4.93;;;1.40;;
13720;SDS011;6932;51.438;5.470;2022-10-16T12:30:42;3.83;;;1.40;;
13720;SDS011;6932;51.438;5.470;2022-10-16T12:33:22;4.33;;;1.63;;
13720;SDS011;6932;51.438;5.470;2022-10-16T12:35:49;5.43;;;1.30;;
13720;SDS011;6932;51.438;5.470;2022-10-16T12:38:19;4.60;;;1.23;;
13720;SDS011;6932;51.438;5.470;2022-10-16T12:40:59;5.40;;;1.23;;
13720;SDS011;6932;51.438;5.470;2022-10-16T12:48:35;5.03;;;1.33;;
13720;SDS011;6932;51.438;5.470;2022-10-16T12:53:57;4.77;;;1.47;;
13720;SDS011;6932;51.438;5.470;2022-10-16T12:59:16;3.20;;;1.10;;
13720;SDS011;6932;51.438;5.470;2022-10-16T13:02:19;3.97;;;1.27;;
13720;SDS011;6932;51.438;5.470;2022-10-16T13:20:38;2.93;;;1.20;;
13720;SDS011;6932;51.438;5.470;2022-10-16T13:23:31;3.77;;;1.20;;
13720;SDS011;6932;51.438;5.470;2022-10-16T13:26:33;3.63;;;1.10;;
13720;SDS011;6932;51.438;5.470;2022-10-16T13:29:24;2.93;;;1.30;;
13720;SDS011;6932;51.438;5.470;2022-10-16T13:31:59;3.77;;;1.10;;
13720;SDS011;6932;51.438;5.470;2022-10-16T13:34:33;2.13;;;1.00;;
13720;SDS011;6932;51.438;5.470;2022-10-16T13:37:16;3.80;;;1.10;;
13720;SDS011;6932;51.438;5.470;2022-10-16T13:39:47;3.77;;;1.40;;
13720;SDS011;6932;51.438;5.470;2022-10-16T13:42:22;2.73;;;1.10;;
13720;SDS011;6932;51.438;5.470;2022-10-16T13:44:53;2.90;;;1.40;;
13720;SDS011;6932;51.438;5.470;2022-10-16T13:47:21;4.90;;;1.20;;
13720;SDS011;6932;51.438;5.470;2022-10-16T13:52:36;2.17;;;1.10;;
13720;SDS011;6932;51.438;5.470;2022-10-16T13:55:03;3.23;;;1.33;;
13720;SDS011;6932;51.438;5.470;2022-10-16T13:57:36;3.13;;;1.20;;
13720;SDS011;6932;51.438;5.470;2022-10-16T14:00:02;3.87;;;1.30;;
13720;SDS011;6932;51.438;5.470;2022-10-16T14:02:41;2.77;;;1.00;;
13720;SDS011;6932;51.438;5.470;2022-10-16T14:05:08;4.53;;;1.23;;
13720;SDS011;6932;51.438;5.470;2022-10-16T14:07:35;3.80;;;1.10;;
13720;SDS011;6932;51.438;5.470;2022-10-16T14:10:04;3.10;;;1.43;;
13720;SDS011;6932;51.438;5.470;2022-10-16T14:12:43;2.50;;;1.10;;
13720;SDS011;6932;51.438;5.470;2022-10-16T14:15:16;3.00;;;1.50;;
13720;SDS011;6932;51.438;5.470;2022-10-16T14:17:43;3.13;;;1.40;;
13720;SDS011;6932;51.438;5.470;2022-10-16T14:20:15;4.30;;;1.53;;
13720;SDS011;6932;51.438;5.470;2022-10-16T14:22:41;2.77;;;1.10;;
13720;SDS011;6932;51.438;5.470;2022-10-16T14:25:21;3.87;;;1.40;;
13720;SDS011;6932;51.438;5.470;2022-10-16T14:30:35;2.83;;;1.40;;
13720;SDS011;6932;51.438;5.470;2022-10-16T14:33:06;3.23;;;1.60;;
13720;SDS011;6932;51.438;5.470;2022-10-16T14:38:29;3.67;;;1.53;;
13720;SDS011;6932;51.438;5.470;2022-10-16T14:40:58;3.60;;;1.40;;
13720;SDS011;6932;51.438;5.470;2022-10-16T14:43:32;3.53;;;1.53;;
13720;SDS011;6932;51.438;5.470;2022-10-16T14:46:09;6.37;;;1.67;;
13720;SDS011;6932;51.438;5.470;2022-10-16T14:48:42;3.00;;;1.67;;
13720;SDS011;6932;51.438;5.470;2022-10-16T14:51:15;3.67;;;1.53;;
13720;SDS011;6932;51.438;5.470;2022-10-16T14:53:43;3.53;;;1.10;;
13720;SDS011;6932;51.438;5.470;2022-10-16T14:56:20;3.57;;;1.20;;
13720;SDS011;6932;51.438;5.470;2022-10-16T14:58:52;3.07;;;1.60;;
13720;SDS011;6932;51.438;5.470;2022-10-16T15:01:18;3.70;;;1.40;;
13720;SDS011;6932;51.438;5.470;2022-10-16T15:03:45;3.60;;;1.10;;
13720;SDS011;6932;51.438;5.470;2022-10-16T15:06:11;2.40;;;1.10;;
13720;SDS011;6932;51.438;5.470;2022-10-16T15:08:41;2.83;;;1.30;;
13720;SDS011;6932;51.438;5.470;2022-10-16T15:11:14;2.93;;;1.40;;
13720;SDS011;6932;51.438;5.470;2022-10-16T15:13:43;3.73;;;1.20;;
13720;SDS011;6932;51.438;5.470;2022-10-16T15:16:12;4.93;;;2.10;;
13720;SDS011;6932;51.438;5.470;2022-10-16T15:18:41;3.70;;;1.30;;
13720;SDS011;6932;51.438;5.470;2022-10-16T15:21:08;5.47;;;2.10;;
13720;SDS011;6932;51.438;5.470;2022-10-16T15:23:55;4.60;;;1.97;;
13720;SDS011;6932;51.438;5.470;2022-10-16T15:26:22;4.47;;;1.30;;
13720;SDS011;6932;51.438;5.470;2022-10-16T15:28:52;3.83;;;1.80;;
13720;SDS011;6932;51.438;5.470;2022-10-16T15:31:18;3.83;;;1.83;;
13720;SDS011;6932;51.438;5.470;2022-10-16T15:33:46;2.97;;;1.63;;
13720;SDS011;6932;51.438;5.470;2022-10-16T15:36:24;4.23;;;1.50;;
13720;SDS011;6932;51.438;5.470;2022-10-16T15:38:54;2.23;;;1.40;;
13720;SDS011;6932;51.438;5.470;2022-10-16T15:41:21;5.03;;;2.20;;
13720;SDS011;6932;51.438;5.470;2022-10-16T15:43:50;3.43;;;1.90;;
13720;SDS011;6932;51.438;5.470;2022-10-16T15:46:18;3.63;;;2.20;;
13720;SDS011;6932;51.438;5.470;2022-10-16T15:48:46;5.50;;;2.03;;
13720;SDS011;6932;51.438;5.470;2022-10-16T15:51:13;4.13;;;1.90;;
13720;SDS011;6932;51.438;5.470;2022-10-16T15:53:39;2.80;;;1.73;;
13720;SDS011;6932;51.438;5.470;2022-10-16T15:56:05;3.17;;;1.43;;
13720;SDS011;6932;51.438;5.470;2022-10-16T15:58:33;2.40;;;1.70;;
13720;SDS011;6932;51.438;5.470;2022-10-16T16:01:00;3.07;;;1.70;;
13720;SDS011;6932;51.438;5.470;2022-10-16T16:03:28;5.07;;;1.80;;
13720;SDS011;6932;51.438;5.470;2022-10-16T16:05:55;3.00;;;2.03;;
13720;SDS011;6932;51.438;5.470;2022-10-16T16:08:21;3.33;;;1.60;;
13720;SDS011;6932;51.438;5.470;2022-10-16T16:11:00;2.37;;;1.73;;
13720;SDS011;6932;51.438;5.470;2022-10-16T16:13:27;4.23;;;1.97;;
13720;SDS011;6932;51.438;5.470;2022-10-16T16:15:53;3.07;;;1.60;;
13720;SDS011;6932;51.438;5.470;2022-10-16T16:18:19;3.43;;;2.03;;
13720;SDS011;6932;51.438;5.470;2022-10-16T16:20:45;5.57;;;2.40;;
13720;SDS011;6932;51.438;5.470;2022-10-16T16:23:11;5.00;;;2.00;;
13720;SDS011;6932;51.438;5.470;2022-10-16T16:25:37;4.07;;;1.80;;
13720;SDS011;6932;51.438;5.470;2022-10-16T16:28:02;4.50;;;2.30;;
13720;SDS011;6932;51.438;5.470;2022-10-16T16:30:28;6.73;;;2.60;;
13720;SDS011;6932;51.438;5.470;2022-10-16T16:32:54;5.83;;;2.60;;
13720;SDS011;6932;51.438;5.470;2022-10-16T16:35:19;6.13;;;3.20;;
13720;SDS011;6932;51.438;5.470;2022-10-16T16:37:46;5.20;;;2.83;;
13720;SDS011;6932;51.438;5.470;2022-10-16T16:40:12;5.10;;;2.77;;
13720;SDS011;6932;51.438;5.470;2022-10-16T16:42:38;4.47;;;2.20;;
13720;SDS011;6932;51.438;5.470;2022-10-16T16:45:04;4.80;;;2.67;;
13720;SDS011;6932;51.438;5.470;2022-10-16T16:47:31;7.03;;;3.60;;
13720;SDS011;6932;51.438;5.470;2022-10-16T16:49:57;5.07;;;2.50;;
13720;SDS011;6932;51.438;5.470;2022-10-16T16:52:22;5.20;;;2.47;;
13720;SDS011;6932;51.438;5.470;2022-10-16T16:54:48;5.97;;;3.03;;
13720;SDS011;6932;51.438;5.470;2022-10-16T16:57:17;6.80;;;2.83;;
13720;SDS011;6932;51.438;5.470;2022-10-16T16:59:44;4.70;;;2.77;;
13720;SDS011;6932;51.438;5.470;2022-10-16T17:02:10;5.87;;;2.90;;
13720;SDS011;6932;51.438;5.470;2022-10-16T17:04:36;6.33;;;3.10;;
13720;SDS011;6932;51.438;5.470;2022-10-16T17:07:02;5.53;;;2.40;;
13720;SDS011;6932;51.438;5.470;2022-10-16T17:09:28;4.27;;;2.43;;
13720;SDS011;6932;51.438;5.470;2022-10-16T17:11:53;5.20;;;2.50;;
13720;SDS011;6932;51.438;5.470;2022-10-16T17:14:19;6.63;;;2.73;;
13720;SDS011;6932;51.438;5.470;2022-10-16T17:16:45;5.17;;;2.60;;
13720;SDS011;6932;51.438;5.470;2022-10-16T17:19:14;4.90;;;2.57;;
13720;SDS011;6932;51.438;5.470;2022-10-16T17:21:43;5.97;;;2.83;;
13720;SDS011;6932;51.438;5.470;2022-10-16T17:24:09;4.40;;;2.70;;
13720;SDS011;6932;51.438;5.470;2022-10-16T17:26:35;7.27;;;2.90;;
13720;SDS011;6932;51.438;5.470;2022-10-16T17:29:02;7.80;;;3.27;;
13720;SDS011;6932;51.438;5.470;2022-10-16T17:31:30;5.90;;;2.97;;
13720;SDS011;6932;51.438;5.470;2022-10-16T17:34:01;5.07;;;3.00;;
13720;SDS011;6932;51.438;5.470;2022-10-16T17:36:32;5.10;;;2.70;;
13720;SDS011;6932;51.438;5.470;2022-10-16T17:39:01;4.37;;;2.70;;
13720;SDS011;6932;51.438;5.470;2022-10-16T17:41:32;4.43;;;2.53;;
13720;SDS011;6932;51.438;5.470;2022-10-16T17:43:59;6.50;;;3.00;;